sensor_id;sensor_type;location;lat;lon;timestamp;temperature;humidity
17998;DHT22;9124;48.144;17.098;2022-08-05T00:02:22;23.40;47.20
17998;DHT22;9124;48.144;17.098;2022-08-05T00:05:59;23.40;47.80
17998;DHT22;9124;48.144;17.098;2022-08-05T00:09:36;23.40;47.10
17998;DHT22;9124;48.144;17.098;2022-08-05T00:13:13;23.40;47.40
17998;DHT22;9124;48.144;17.098;2022-08-05T00:16:50;23.40;47.40
17998;DHT22;9124;48.144;17.098;2022-08-05T00:20:26;23.30;47.30
17998;DHT22;9124;48.144;17.098;2022-08-05T00:24:03;23.30;47.30
17998;DHT22;9124;48.144;17.098;2022-08-05T00:27:40;23.30;47.20
17998;DHT22;9124;48.144;17.098;2022-08-05T00:31:17;23.40;47.20
17998;DHT22;9124;48.144;17.098;2022-08-05T00:34:54;23.40;47.10
17998;DHT22;9124;48.144;17.098;2022-08-05T00:38:31;23.40;47.10
17998;DHT22;9124;48.144;17.098;2022-08-05T00:42:08;23.30;47.20
17998;DHT22;9124;48.144;17.098;2022-08-05T00:45:45;23.30;47.50
17998;DHT22;9124;48.144;17.098;2022-08-05T00:49:23;23.20;47.40
17998;DHT22;9124;48.144;17.098;2022-08-05T00:53:00;23.10;47.70
17998;DHT22;9124;48.144;17.098;2022-08-05T00:56:37;23.10;47.90
17998;DHT22;9124;48.144;17.098;2022-08-05T01:00:13;23.00;48.70
17998;DHT22;9124;48.144;17.098;2022-08-05T01:03:50;23.00;48.10
17998;DHT22;9124;48.144;17.098;2022-08-05T01:07:28;23.00;48.40
17998;DHT22;9124;48.144;17.098;2022-08-05T01:11:23;22.90;48.30
17998;DHT22;9124;48.144;17.098;2022-08-05T01:15:05;22.90;48.50
17998;DHT22;9124;48.144;17.098;2022-08-05T01:18:48;22.90;48.50
17998;DHT22;9124;48.144;17.098;2022-08-05T01:22:44;22.90;48.50
17998;DHT22;9124;48.144;17.098;2022-08-05T01:26:39;22.90;48.50
17998;DHT22;9124;48.144;17.098;2022-08-05T01:30:18;22.90;48.60
17998;DHT22;9124;48.144;17.098;2022-08-05T01:33:59;22.90;48.60
17998;DHT22;9124;48.144;17.098;2022-08-05T01:37:51;22.90;48.70
17998;DHT22;9124;48.144;17.098;2022-08-05T01:41:33;22.80;48.90
17998;DHT22;9124;48.144;17.098;2022-08-05T01:45:13;22.90;49.00
17998;DHT22;9124;48.144;17.098;2022-08-05T01:48:53;22.80;49.10
17998;DHT22;9124;48.144;17.098;2022-08-05T01:52:33;22.90;49.20
17998;DHT22;9124;48.144;17.098;2022-08-05T01:56:13;22.80;49.40
17998;DHT22;9124;48.144;17.098;2022-08-05T01:59:55;22.70;49.40
17998;DHT22;9124;48.144;17.098;2022-08-05T02:03:39;22.70;49.60
17998;DHT22;9124;48.144;17.098;2022-08-05T02:07:17;22.70;50.20
17998;DHT22;9124;48.144;17.098;2022-08-05T02:11:01;22.70;50.10
17998;DHT22;9124;48.144;17.098;2022-08-05T02:14:51;22.60;50.20
17998;DHT22;9124;48.144;17.098;2022-08-05T02:18:39;22.60;50.40
17998;DHT22;9124;48.144;17.098;2022-08-05T02:22:22;22.60;50.60
17998;DHT22;9124;48.144;17.098;2022-08-05T02:26:05;22.50;50.70
17998;DHT22;9124;48.144;17.098;2022-08-05T02:29:43;22.50;50.90
17998;DHT22;9124;48.144;17.098;2022-08-05T02:33:21;22.40;51.10
17998;DHT22;9124;48.144;17.098;2022-08-05T02:37:02;22.30;51.30
17998;DHT22;9124;48.144;17.098;2022-08-05T02:40:41;22.30;51.60
17998;DHT22;9124;48.144;17.098;2022-08-05T02:44:20;22.30;51.80
17998;DHT22;9124;48.144;17.098;2022-08-05T02:47:59;22.30;51.90
17998;DHT22;9124;48.144;17.098;2022-08-05T02:51:38;22.30;52.10
17998;DHT22;9124;48.144;17.098;2022-08-05T02:55:16;22.20;52.30
17998;DHT22;9124;48.144;17.098;2022-08-05T02:58:53;22.20;52.40
17998;DHT22;9124;48.144;17.098;2022-08-05T03:02:35;22.20;52.60
17998;DHT22;9124;48.144;17.098;2022-08-05T03:06:13;22.10;52.90
17998;DHT22;9124;48.144;17.098;2022-08-05T03:09:50;22.10;53.00
17998;DHT22;9124;48.144;17.098;2022-08-05T03:13:27;22.00;53.10
17998;DHT22;9124;48.144;17.098;2022-08-05T03:17:04;22.00;53.40
17998;DHT22;9124;48.144;17.098;2022-08-05T03:20:41;22.00;53.50
17998;DHT22;9124;48.144;17.098;2022-08-05T03:24:18;22.00;53.70
17998;DHT22;9124;48.144;17.098;2022-08-05T03:27:56;21.90;53.90
17998;DHT22;9124;48.144;17.098;2022-08-05T03:31:33;21.90;54.70
17998;DHT22;9124;48.144;17.098;2022-08-05T03:35:11;21.90;54.20
17998;DHT22;9124;48.144;17.098;2022-08-05T03:38:48;21.80;54.30
17998;DHT22;9124;48.144;17.098;2022-08-05T03:42:26;21.80;54.40
17998;DHT22;9124;48.144;17.098;2022-08-05T03:46:03;21.80;54.60
17998;DHT22;9124;48.144;17.098;2022-08-05T03:49:40;21.80;55.30
17998;DHT22;9124;48.144;17.098;2022-08-05T03:53:29;21.80;54.90
17998;DHT22;9124;48.144;17.098;2022-08-05T03:57:09;21.90;55.10
17998;DHT22;9124;48.144;17.098;2022-08-05T04:00:48;21.90;55.10
17998;DHT22;9124;48.144;17.098;2022-08-05T04:04:26;21.90;55.20
17998;DHT22;9124;48.144;17.098;2022-08-05T04:08:08;21.90;55.20
17998;DHT22;9124;48.144;17.098;2022-08-05T04:11:46;21.90;55.40
17998;DHT22;9124;48.144;17.098;2022-08-05T04:15:23;21.90;55.40
17998;DHT22;9124;48.144;17.098;2022-08-05T04:19:01;22.00;56.00
17998;DHT22;9124;48.144;17.098;2022-08-05T04:22:38;22.00;55.50
17998;DHT22;9124;48.144;17.098;2022-08-05T04:26:15;22.10;55.50
17998;DHT22;9124;48.144;17.098;2022-08-05T04:29:52;22.20;55.50
17998;DHT22;9124;48.144;17.098;2022-08-05T04:33:29;22.20;55.40
17998;DHT22;9124;48.144;17.098;2022-08-05T04:37:06;22.30;55.60
17998;DHT22;9124;48.144;17.098;2022-08-05T04:40:43;22.30;55.50
17998;DHT22;9124;48.144;17.098;2022-08-05T04:44:19;22.30;55.50
17998;DHT22;9124;48.144;17.098;2022-08-05T04:48:11;22.40;55.50
17998;DHT22;9124;48.144;17.098;2022-08-05T04:51:48;22.50;55.50
17998;DHT22;9124;48.144;17.098;2022-08-05T04:55:25;22.50;55.40
17998;DHT22;9124;48.144;17.098;2022-08-05T04:59:02;22.60;55.40
17998;DHT22;9124;48.144;17.098;2022-08-05T05:02:39;22.70;55.40
17998;DHT22;9124;48.144;17.098;2022-08-05T05:06:16;22.70;55.20
17998;DHT22;9124;48.144;17.098;2022-08-05T05:09:53;22.80;55.20
17998;DHT22;9124;48.144;17.098;2022-08-05T05:13:29;22.90;55.10
17998;DHT22;9124;48.144;17.098;2022-08-05T05:17:06;23.00;55.10
17998;DHT22;9124;48.144;17.098;2022-08-05T05:20:44;23.10;55.00
17998;DHT22;9124;48.144;17.098;2022-08-05T05:24:21;23.20;54.90
17998;DHT22;9124;48.144;17.098;2022-08-05T05:27:58;23.30;54.80
17998;DHT22;9124;48.144;17.098;2022-08-05T05:31:35;23.40;54.70
17998;DHT22;9124;48.144;17.098;2022-08-05T05:35:12;23.50;54.60
17998;DHT22;9124;48.144;17.098;2022-08-05T05:38:49;23.60;54.40
17998;DHT22;9124;48.144;17.098;2022-08-05T05:42:26;23.70;54.10
17998;DHT22;9124;48.144;17.098;2022-08-05T05:46:03;23.90;54.00
17998;DHT22;9124;48.144;17.098;2022-08-05T05:49:40;24.00;53.80
17998;DHT22;9124;48.144;17.098;2022-08-05T05:53:17;24.10;53.60
17998;DHT22;9124;48.144;17.098;2022-08-05T05:56:54;24.20;53.30
17998;DHT22;9124;48.144;17.098;2022-08-05T06:00:31;24.30;53.00
17998;DHT22;9124;48.144;17.098;2022-08-05T06:04:10;24.40;52.80
17998;DHT22;9124;48.144;17.098;2022-08-05T06:07:47;24.60;52.50
17998;DHT22;9124;48.144;17.098;2022-08-05T06:11:25;24.80;52.30
17998;DHT22;9124;48.144;17.098;2022-08-05T06:15:04;25.00;52.10
17998;DHT22;9124;48.144;17.098;2022-08-05T06:18:41;25.30;51.80
17998;DHT22;9124;48.144;17.098;2022-08-05T06:22:26;25.50;51.40
17998;DHT22;9124;48.144;17.098;2022-08-05T06:26:03;25.80;51.10
17998;DHT22;9124;48.144;17.098;2022-08-05T06:29:40;26.00;50.60
17998;DHT22;9124;48.144;17.098;2022-08-05T06:33:17;26.20;50.10
17998;DHT22;9124;48.144;17.098;2022-08-05T06:36:53;26.50;49.90
17998;DHT22;9124;48.144;17.098;2022-08-05T06:40:31;26.90;49.40
17998;DHT22;9124;48.144;17.098;2022-08-05T06:44:07;27.40;49.00
17998;DHT22;9124;48.144;17.098;2022-08-05T06:47:44;27.70;48.50
17998;DHT22;9124;48.144;17.098;2022-08-05T06:51:21;28.20;48.30
17998;DHT22;9124;48.144;17.098;2022-08-05T06:54:58;28.80;47.70
17998;DHT22;9124;48.144;17.098;2022-08-05T06:58:35;29.60;47.70
17998;DHT22;9124;48.144;17.098;2022-08-05T07:02:12;30.40;46.30
17998;DHT22;9124;48.144;17.098;2022-08-05T07:05:50;31.70;44.50
17998;DHT22;9124;48.144;17.098;2022-08-05T07:09:27;33.70;42.80
17998;DHT22;9124;48.144;17.098;2022-08-05T07:13:03;36.30;40.50
17998;DHT22;9124;48.144;17.098;2022-08-05T07:16:59;39.20;37.30
17998;DHT22;9124;48.144;17.098;2022-08-05T07:20:36;41.00;34.20
17998;DHT22;9124;48.144;17.098;2022-08-05T07:24:13;42.20;32.10
17998;DHT22;9124;48.144;17.098;2022-08-05T07:27:52;43.20;30.30
17998;DHT22;9124;48.144;17.098;2022-08-05T07:31:30;43.90;29.10
17998;DHT22;9124;48.144;17.098;2022-08-05T07:35:07;44.80;28.50
17998;DHT22;9124;48.144;17.098;2022-08-05T07:38:45;45.60;27.90
17998;DHT22;9124;48.144;17.098;2022-08-05T07:42:22;46.40;27.10
17998;DHT22;9124;48.144;17.098;2022-08-05T07:45:59;47.30;26.60
17998;DHT22;9124;48.144;17.098;2022-08-05T07:49:35;47.40;26.10
17998;DHT22;9124;48.144;17.098;2022-08-05T07:53:12;47.60;25.70
17998;DHT22;9124;48.144;17.098;2022-08-05T07:56:49;47.40;25.40
17998;DHT22;9124;48.144;17.098;2022-08-05T08:00:25;47.70;25.30
17998;DHT22;9124;48.144;17.098;2022-08-05T08:04:02;48.00;25.10
17998;DHT22;9124;48.144;17.098;2022-08-05T08:07:39;48.70;24.80
17998;DHT22;9124;48.144;17.098;2022-08-05T08:11:16;49.30;24.40
17998;DHT22;9124;48.144;17.098;2022-08-05T08:14:53;49.30;24.10
17998;DHT22;9124;48.144;17.098;2022-08-05T08:18:30;49.20;24.50
17998;DHT22;9124;48.144;17.098;2022-08-05T08:22:08;50.20;23.90
17998;DHT22;9124;48.144;17.098;2022-08-05T08:25:45;50.50;23.30
17998;DHT22;9124;48.144;17.098;2022-08-05T08:29:22;51.10;23.30
17998;DHT22;9124;48.144;17.098;2022-08-05T08:32:58;51.00;23.10
17998;DHT22;9124;48.144;17.098;2022-08-05T08:36:35;51.40;23.00
17998;DHT22;9124;48.144;17.098;2022-08-05T08:40:12;50.40;23.00
17998;DHT22;9124;48.144;17.098;2022-08-05T08:43:49;51.60;23.10
17998;DHT22;9124;48.144;17.098;2022-08-05T08:47:29;52.30;22.70
17998;DHT22;9124;48.144;17.098;2022-08-05T08:51:06;52.60;22.90
17998;DHT22;9124;48.144;17.098;2022-08-05T08:54:43;51.40;22.50
17998;DHT22;9124;48.144;17.098;2022-08-05T08:58:23;50.60;22.70
17998;DHT22;9124;48.144;17.098;2022-08-05T09:02:03;51.10;22.70
17998;DHT22;9124;48.144;17.098;2022-08-05T09:05:40;51.60;22.60
17998;DHT22;9124;48.144;17.098;2022-08-05T09:09:17;51.40;22.40
17998;DHT22;9124;48.144;17.098;2022-08-05T09:12:55;51.40;22.60
17998;DHT22;9124;48.144;17.098;2022-08-05T09:16:32;52.60;22.50
17998;DHT22;9124;48.144;17.098;2022-08-05T09:20:11;53.30;22.20
17998;DHT22;9124;48.144;17.098;2022-08-05T09:24:02;53.20;22.00
17998;DHT22;9124;48.144;17.098;2022-08-05T09:27:40;52.30;22.10
17998;DHT22;9124;48.144;17.098;2022-08-05T09:31:17;52.70;22.40
17998;DHT22;9124;48.144;17.098;2022-08-05T09:34:55;54.00;22.00
17998;DHT22;9124;48.144;17.098;2022-08-05T09:38:33;54.20;21.90
17998;DHT22;9124;48.144;17.098;2022-08-05T09:42:12;53.30;22.00
17998;DHT22;9124;48.144;17.098;2022-08-05T09:45:51;52.70;22.00
17998;DHT22;9124;48.144;17.098;2022-08-05T09:49:28;52.10;21.80
17998;DHT22;9124;48.144;17.098;2022-08-05T09:53:04;51.10;22.10
17998;DHT22;9124;48.144;17.098;2022-08-05T09:56:42;51.40;22.40
17998;DHT22;9124;48.144;17.098;2022-08-05T10:00:21;51.50;22.30
17998;DHT22;9124;48.144;17.098;2022-08-05T10:04:03;51.50;22.60
17998;DHT22;9124;48.144;17.098;2022-08-05T10:07:44;53.00;22.20
17998;DHT22;9124;48.144;17.098;2022-08-05T10:11:22;53.60;22.10
17998;DHT22;9124;48.144;17.098;2022-08-05T10:15:15;53.30;21.80
17998;DHT22;9124;48.144;17.098;2022-08-05T10:18:53;52.80;22.30
17998;DHT22;9124;48.144;17.098;2022-08-05T10:22:30;52.10;22.30
17998;DHT22;9124;48.144;17.098;2022-08-05T10:26:09;51.40;22.60
17998;DHT22;9124;48.144;17.098;2022-08-05T10:29:48;50.50;22.80
17998;DHT22;9124;48.144;17.098;2022-08-05T10:33:28;48.30;23.70
17998;DHT22;9124;48.144;17.098;2022-08-05T10:37:05;45.20;24.90
17998;DHT22;9124;48.144;17.098;2022-08-05T10:44:28;40.10;28.00
17998;DHT22;9124;48.144;17.098;2022-08-05T10:48:33;38.40;29.10
17998;DHT22;9124;48.144;17.098;2022-08-05T10:52:40;37.20;30.20
17998;DHT22;9124;48.144;17.098;2022-08-05T10:56:22;36.00;31.40
17998;DHT22;9124;48.144;17.098;2022-08-05T11:04:04;34.80;33.70
17998;DHT22;9124;48.144;17.098;2022-08-05T11:07:58;34.30;34.30
17998;DHT22;9124;48.144;17.098;2022-08-05T11:11:35;34.20;34.90
17998;DHT22;9124;48.144;17.098;2022-08-05T11:15:16;34.10;34.90
17998;DHT22;9124;48.144;17.098;2022-08-05T11:19:26;34.00;34.90
17998;DHT22;9124;48.144;17.098;2022-08-05T11:27:30;34.00;35.90
17998;DHT22;9124;48.144;17.098;2022-08-05T11:31:28;33.90;35.80
17998;DHT22;9124;48.144;17.098;2022-08-05T11:39:46;33.90;35.70
17998;DHT22;9124;48.144;17.098;2022-08-05T11:43:23;34.00;36.00
17998;DHT22;9124;48.144;17.098;2022-08-05T11:47:00;34.10;36.20
17998;DHT22;9124;48.144;17.098;2022-08-05T11:50:37;34.10;35.60
17998;DHT22;9124;48.144;17.098;2022-08-05T11:54:25;34.10;35.50
17998;DHT22;9124;48.144;17.098;2022-08-05T11:58:03;34.20;35.80
17998;DHT22;9124;48.144;17.098;2022-08-05T12:01:52;34.20;35.80
17998;DHT22;9124;48.144;17.098;2022-08-05T12:05:30;34.30;35.70
17998;DHT22;9124;48.144;17.098;2022-08-05T12:09:06;34.20;35.00
17998;DHT22;9124;48.144;17.098;2022-08-05T12:12:43;34.20;35.10
17998;DHT22;9124;48.144;17.098;2022-08-05T12:16:21;34.10;35.10
17998;DHT22;9124;48.144;17.098;2022-08-05T12:19:58;34.20;35.30
17998;DHT22;9124;48.144;17.098;2022-08-05T12:23:35;34.20;35.20
17998;DHT22;9124;48.144;17.098;2022-08-05T12:27:23;34.40;35.00
17998;DHT22;9124;48.144;17.098;2022-08-05T12:31:01;34.30;35.00
17998;DHT22;9124;48.144;17.098;2022-08-05T12:34:38;34.40;35.00
17998;DHT22;9124;48.144;17.098;2022-08-05T12:38:15;34.50;34.90
17998;DHT22;9124;48.144;17.098;2022-08-05T12:42:01;34.40;34.70
17998;DHT22;9124;48.144;17.098;2022-08-05T12:45:53;34.50;35.00
17998;DHT22;9124;48.144;17.098;2022-08-05T12:49:40;34.40;34.80
17998;DHT22;9124;48.144;17.098;2022-08-05T12:53:17;34.50;35.40
17998;DHT22;9124;48.144;17.098;2022-08-05T12:56:57;34.50;35.00
17998;DHT22;9124;48.144;17.098;2022-08-05T13:00:41;34.50;35.00
17998;DHT22;9124;48.144;17.098;2022-08-05T13:04:19;34.70;35.20
17998;DHT22;9124;48.144;17.098;2022-08-05T13:07:56;34.60;34.90
17998;DHT22;9124;48.144;17.098;2022-08-05T13:11:38;34.70;35.00
17998;DHT22;9124;48.144;17.098;2022-08-05T13:15:16;34.70;34.90
17998;DHT22;9124;48.144;17.098;2022-08-05T13:18:55;34.70;34.60
17998;DHT22;9124;48.144;17.098;2022-08-05T13:22:34;34.60;34.70
17998;DHT22;9124;48.144;17.098;2022-08-05T13:26:12;34.70;34.90
17998;DHT22;9124;48.144;17.098;2022-08-05T13:29:48;34.80;34.80
17998;DHT22;9124;48.144;17.098;2022-08-05T13:33:25;34.90;34.40
17998;DHT22;9124;48.144;17.098;2022-08-05T13:37:02;34.80;34.10
17998;DHT22;9124;48.144;17.098;2022-08-05T13:40:39;34.90;34.20
17998;DHT22;9124;48.144;17.098;2022-08-05T13:44:15;34.90;34.50
17998;DHT22;9124;48.144;17.098;2022-08-05T13:47:53;34.80;34.40
17998;DHT22;9124;48.144;17.098;2022-08-05T13:51:31;34.80;34.40
17998;DHT22;9124;48.144;17.098;2022-08-05T13:55:09;34.80;34.50
17998;DHT22;9124;48.144;17.098;2022-08-05T13:58:46;34.90;34.30
17998;DHT22;9124;48.144;17.098;2022-08-05T14:02:23;34.80;34.30
17998;DHT22;9124;48.144;17.098;2022-08-05T14:05:59;34.80;34.40
17998;DHT22;9124;48.144;17.098;2022-08-05T14:09:36;34.80;34.50
17998;DHT22;9124;48.144;17.098;2022-08-05T14:13:14;34.80;34.40
17998;DHT22;9124;48.144;17.098;2022-08-05T14:16:51;34.90;34.60
17998;DHT22;9124;48.144;17.098;2022-08-05T14:20:29;34.90;35.00
17998;DHT22;9124;48.144;17.098;2022-08-05T14:24:06;35.00;34.50
17998;DHT22;9124;48.144;17.098;2022-08-05T14:27:46;35.00;34.50
17998;DHT22;9124;48.144;17.098;2022-08-05T14:31:25;35.00;34.30
17998;DHT22;9124;48.144;17.098;2022-08-05T14:35:02;34.90;34.50
17998;DHT22;9124;48.144;17.098;2022-08-05T14:38:39;34.90;34.40
17998;DHT22;9124;48.144;17.098;2022-08-05T14:42:16;34.90;34.50
17998;DHT22;9124;48.144;17.098;2022-08-05T14:45:53;34.90;34.30
17998;DHT22;9124;48.144;17.098;2022-08-05T14:49:30;35.00;34.40
17998;DHT22;9124;48.144;17.098;2022-08-05T14:53:07;35.00;34.40
17998;DHT22;9124;48.144;17.098;2022-08-05T14:56:44;35.00;34.40
17998;DHT22;9124;48.144;17.098;2022-08-05T15:00:21;35.00;34.50
17998;DHT22;9124;48.144;17.098;2022-08-05T15:03:58;35.00;34.40
17998;DHT22;9124;48.144;17.098;2022-08-05T15:07:35;35.00;34.80
17998;DHT22;9124;48.144;17.098;2022-08-05T15:11:12;35.00;34.80
17998;DHT22;9124;48.144;17.098;2022-08-05T15:14:49;34.90;34.80
17998;DHT22;9124;48.144;17.098;2022-08-05T15:18:25;34.90;34.50
17998;DHT22;9124;48.144;17.098;2022-08-05T15:22:02;34.90;34.40
17998;DHT22;9124;48.144;17.098;2022-08-05T15:25:39;34.90;34.70
17998;DHT22;9124;48.144;17.098;2022-08-05T15:29:16;34.90;34.90
17998;DHT22;9124;48.144;17.098;2022-08-05T15:32:53;34.80;34.90
17998;DHT22;9124;48.144;17.098;2022-08-05T15:36:33;34.70;35.20
17998;DHT22;9124;48.144;17.098;2022-08-05T15:40:10;34.60;35.30
17998;DHT22;9124;48.144;17.098;2022-08-05T15:43:47;34.60;35.40
17998;DHT22;9124;48.144;17.098;2022-08-05T15:47:24;34.60;35.30
17998;DHT22;9124;48.144;17.098;2022-08-05T15:51:00;34.50;35.50
17998;DHT22;9124;48.144;17.098;2022-08-05T15:54:37;34.40;35.70
17998;DHT22;9124;48.144;17.098;2022-08-05T15:58:14;34.40;35.70
17998;DHT22;9124;48.144;17.098;2022-08-05T16:01:51;34.30;35.70
17998;DHT22;9124;48.144;17.098;2022-08-05T16:05:28;34.30;35.80
17998;DHT22;9124;48.144;17.098;2022-08-05T16:09:05;34.30;35.80
17998;DHT22;9124;48.144;17.098;2022-08-05T16:12:41;34.20;36.10
17998;DHT22;9124;48.144;17.098;2022-08-05T16:16:18;34.00;36.10
17998;DHT22;9124;48.144;17.098;2022-08-05T16:19:56;33.80;36.30
17998;DHT22;9124;48.144;17.098;2022-08-05T16:23:33;33.60;36.50
17998;DHT22;9124;48.144;17.098;2022-08-05T16:27:10;33.40;36.70
17998;DHT22;9124;48.144;17.098;2022-08-05T16:30:46;33.20;36.80
17998;DHT22;9124;48.144;17.098;2022-08-05T16:34:25;33.00;37.50
17998;DHT22;9124;48.144;17.098;2022-08-05T16:38:02;32.80;37.50
17998;DHT22;9124;48.144;17.098;2022-08-05T16:41:40;32.50;37.50
17998;DHT22;9124;48.144;17.098;2022-08-05T16:45:17;32.40;37.80
17998;DHT22;9124;48.144;17.098;2022-08-05T16:48:54;32.30;38.20
17998;DHT22;9124;48.144;17.098;2022-08-05T16:52:31;32.20;38.50
17998;DHT22;9124;48.144;17.098;2022-08-05T16:56:08;32.10;38.80
17998;DHT22;9124;48.144;17.098;2022-08-05T16:59:45;32.10;39.10
17998;DHT22;9124;48.144;17.098;2022-08-05T17:03:22;32.00;39.40
17998;DHT22;9124;48.144;17.098;2022-08-05T17:06:58;31.80;39.40
17998;DHT22;9124;48.144;17.098;2022-08-05T17:10:36;31.80;39.50
17998;DHT22;9124;48.144;17.098;2022-08-05T17:14:12;31.70;39.70
17998;DHT22;9124;48.144;17.098;2022-08-05T17:17:49;31.60;40.00
17998;DHT22;9124;48.144;17.098;2022-08-05T17:21:26;31.60;40.20
17998;DHT22;9124;48.144;17.098;2022-08-05T17:25:04;31.50;40.50
17998;DHT22;9124;48.144;17.098;2022-08-05T17:28:40;31.40;40.90
17998;DHT22;9124;48.144;17.098;2022-08-05T17:32:17;31.30;41.10
17998;DHT22;9124;48.144;17.098;2022-08-05T17:35:54;31.10;41.70
17998;DHT22;9124;48.144;17.098;2022-08-05T17:39:31;31.00;42.00
17998;DHT22;9124;48.144;17.098;2022-08-05T17:43:08;30.90;42.50
17998;DHT22;9124;48.144;17.098;2022-08-05T17:46:45;30.70;42.80
17998;DHT22;9124;48.144;17.098;2022-08-05T17:50:27;30.50;43.10
17998;DHT22;9124;48.144;17.098;2022-08-05T17:54:04;30.30;43.80
17998;DHT22;9124;48.144;17.098;2022-08-05T17:57:41;30.20;44.50
17998;DHT22;9124;48.144;17.098;2022-08-05T18:01:19;30.00;44.10
17998;DHT22;9124;48.144;17.098;2022-08-05T18:04:55;29.90;44.00
17998;DHT22;9124;48.144;17.098;2022-08-05T18:08:32;29.90;44.10
17998;DHT22;9124;48.144;17.098;2022-08-05T18:12:09;29.80;44.10
17998;DHT22;9124;48.144;17.098;2022-08-05T18:15:46;29.70;44.50
17998;DHT22;9124;48.144;17.098;2022-08-05T18:19:23;29.60;44.70
17998;DHT22;9124;48.144;17.098;2022-08-05T18:23:00;29.30;45.00
17998;DHT22;9124;48.144;17.098;2022-08-05T18:26:36;29.20;45.40
17998;DHT22;9124;48.144;17.098;2022-08-05T18:30:13;29.10;45.80
17998;DHT22;9124;48.144;17.098;2022-08-05T18:33:50;29.00;46.00
17998;DHT22;9124;48.144;17.098;2022-08-05T18:37:27;28.90;46.20
17998;DHT22;9124;48.144;17.098;2022-08-05T18:41:04;28.80;46.30
17998;DHT22;9124;48.144;17.098;2022-08-05T18:44:42;28.70;46.70
17998;DHT22;9124;48.144;17.098;2022-08-05T18:48:20;28.70;46.70
17998;DHT22;9124;48.144;17.098;2022-08-05T18:51:56;28.80;47.00
17998;DHT22;9124;48.144;17.098;2022-08-05T18:55:52;28.70;47.10
17998;DHT22;9124;48.144;17.098;2022-08-05T18:59:29;28.60;46.90
17998;DHT22;9124;48.144;17.098;2022-08-05T19:03:06;28.50;46.90
17998;DHT22;9124;48.144;17.098;2022-08-05T19:06:42;28.40;46.60
17998;DHT22;9124;48.144;17.098;2022-08-05T19:10:20;28.40;46.50
17998;DHT22;9124;48.144;17.098;2022-08-05T19:13:57;28.40;46.50
17998;DHT22;9124;48.144;17.098;2022-08-05T19:17:34;28.40;46.50
17998;DHT22;9124;48.144;17.098;2022-08-05T19:21:11;28.30;46.50
17998;DHT22;9124;48.144;17.098;2022-08-05T19:24:48;28.30;46.50
17998;DHT22;9124;48.144;17.098;2022-08-05T19:28:25;28.30;46.40
17998;DHT22;9124;48.144;17.098;2022-08-05T19:32:03;28.40;46.50
17998;DHT22;9124;48.144;17.098;2022-08-05T19:35:40;28.30;46.50
17998;DHT22;9124;48.144;17.098;2022-08-05T19:39:17;28.30;46.50
17998;DHT22;9124;48.144;17.098;2022-08-05T19:42:54;28.30;46.40
17998;DHT22;9124;48.144;17.098;2022-08-05T19:46:34;28.20;46.40
17998;DHT22;9124;48.144;17.098;2022-08-05T19:50:13;28.20;46.50
17998;DHT22;9124;48.144;17.098;2022-08-05T19:53:50;28.10;46.30
17998;DHT22;9124;48.144;17.098;2022-08-05T19:57:27;28.10;46.40
17998;DHT22;9124;48.144;17.098;2022-08-05T20:01:03;28.10;46.40
17998;DHT22;9124;48.144;17.098;2022-08-05T20:04:40;28.00;46.50
17998;DHT22;9124;48.144;17.098;2022-08-05T20:08:17;27.90;46.40
17998;DHT22;9124;48.144;17.098;2022-08-05T20:11:55;27.90;46.50
17998;DHT22;9124;48.144;17.098;2022-08-05T20:15:31;27.80;46.50
17998;DHT22;9124;48.144;17.098;2022-08-05T20:19:10;27.80;46.60
17998;DHT22;9124;48.144;17.098;2022-08-05T20:22:46;27.70;46.60
17998;DHT22;9124;48.144;17.098;2022-08-05T20:26:24;27.70;46.80
17998;DHT22;9124;48.144;17.098;2022-08-05T20:30:00;27.60;46.90
17998;DHT22;9124;48.144;17.098;2022-08-05T20:33:37;27.50;47.00
17998;DHT22;9124;48.144;17.098;2022-08-05T20:37:14;27.50;47.10
17998;DHT22;9124;48.144;17.098;2022-08-05T20:40:51;27.40;47.10
17998;DHT22;9124;48.144;17.098;2022-08-05T20:44:27;27.30;47.30
17998;DHT22;9124;48.144;17.098;2022-08-05T20:48:05;27.20;47.50
17998;DHT22;9124;48.144;17.098;2022-08-05T20:51:41;27.20;47.60
17998;DHT22;9124;48.144;17.098;2022-08-05T20:55:19;27.20;47.50
17998;DHT22;9124;48.144;17.098;2022-08-05T20:58:55;27.30;47.50
17998;DHT22;9124;48.144;17.098;2022-08-05T21:02:32;27.40;47.50
17998;DHT22;9124;48.144;17.098;2022-08-05T21:06:09;27.30;47.60
17998;DHT22;9124;48.144;17.098;2022-08-05T21:09:46;27.20;48.00
17998;DHT22;9124;48.144;17.098;2022-08-05T21:13:22;27.10;48.20
17998;DHT22;9124;48.144;17.098;2022-08-05T21:16:59;27.00;48.40
17998;DHT22;9124;48.144;17.098;2022-08-05T21:20:36;26.90;48.50
17998;DHT22;9124;48.144;17.098;2022-08-05T21:24:13;26.90;48.60
17998;DHT22;9124;48.144;17.098;2022-08-05T21:27:50;26.90;48.60
17998;DHT22;9124;48.144;17.098;2022-08-05T21:31:28;26.80;48.70
17998;DHT22;9124;48.144;17.098;2022-08-05T21:35:05;26.90;48.70
17998;DHT22;9124;48.144;17.098;2022-08-05T21:38:42;26.90;48.50
17998;DHT22;9124;48.144;17.098;2022-08-05T21:42:19;26.80;48.60
17998;DHT22;9124;48.144;17.098;2022-08-05T21:45:56;26.80;48.80
17998;DHT22;9124;48.144;17.098;2022-08-05T21:49:32;26.70;48.90
17998;DHT22;9124;48.144;17.098;2022-08-05T21:53:09;26.70;49.10
17998;DHT22;9124;48.144;17.098;2022-08-05T21:56:46;26.70;49.30
17998;DHT22;9124;48.144;17.098;2022-08-05T22:00:23;26.60;49.20
17998;DHT22;9124;48.144;17.098;2022-08-05T22:04:03;26.60;49.40
17998;DHT22;9124;48.144;17.098;2022-08-05T22:07:40;26.50;49.50
17998;DHT22;9124;48.144;17.098;2022-08-05T22:11:18;26.50;50.20
17998;DHT22;9124;48.144;17.098;2022-08-05T22:14:55;26.60;49.50
17998;DHT22;9124;48.144;17.098;2022-08-05T22:18:32;26.90;49.20
17998;DHT22;9124;48.144;17.098;2022-08-05T22:22:09;27.00;49.10
17998;DHT22;9124;48.144;17.098;2022-08-05T22:25:46;27.10;49.10
17998;DHT22;9124;48.144;17.098;2022-08-05T22:29:41;27.10;49.20
17998;DHT22;9124;48.144;17.098;2022-08-05T22:33:18;27.20;49.60
17998;DHT22;9124;48.144;17.098;2022-08-05T22:36:56;27.10;50.00
17998;DHT22;9124;48.144;17.098;2022-08-05T22:40:33;27.20;50.40
17998;DHT22;9124;48.144;17.098;2022-08-05T22:44:10;27.20;50.70
17998;DHT22;9124;48.144;17.098;2022-08-05T22:47:47;27.10;50.90
17998;DHT22;9124;48.144;17.098;2022-08-05T22:51:23;27.00;51.20
17998;DHT22;9124;48.144;17.098;2022-08-05T22:55:02;27.00;51.50
17998;DHT22;9124;48.144;17.098;2022-08-05T22:58:39;26.90;51.90
17998;DHT22;9124;48.144;17.098;2022-08-05T23:02:17;26.90;52.20
17998;DHT22;9124;48.144;17.098;2022-08-05T23:05:53;26.80;52.60
17998;DHT22;9124;48.144;17.098;2022-08-05T23:09:31;26.80;53.00
17998;DHT22;9124;48.144;17.098;2022-08-05T23:13:08;26.70;53.30
17998;DHT22;9124;48.144;17.098;2022-08-05T23:16:45;26.70;53.60